Terminal Aerodrome Forecast
Issued by NWS

Current Version | Previous Version | Text Only | Print | Product List | Glossary Off
Versions: 1 2 3 4 5 6 7 8 9 10 11 12 13 14 15 16 17 18 19 20 21 22 23 24 25 26 27 28 29 30 31 32 33

000
FTUS41 KRNK 232049 AAA
TAFLWB
TAF AMD
KLWB 232049Z 2321/2418 11006KT 6SM -RA OVC035
     FM232300 09005KT 5SM -RA BR OVC025
     FM241000 06008KT 3SM RA OVC008
     FM241200 07008KT P6SM VCSH OVC015=

USA.gov is the U.S. government's official web portal to all federal, state and local government web resources and services.